Time;durP1;ratioP1;P1;durP2;ratioP2;P2;SDS_P1;SDS_P2;PMS_P1;PMS_P2;Temp;Humidity;BMP_temperature;BMP_pressure;BME280_temperature;BME280_humidity;BME280_pressure;Samples;Min_cycle;Max_cycle;Signal;HPM_P1;HPM_P2
2023/04/11 00:01:32;;;;;;;4.97;4.10;;;;;;;;;;5071595;28;20203;-58
2023/04/11 00:03:58;;;;;;;5.27;4.77;;;;;;;;;;5071647;28;20219;-58
2023/04/11 00:06:24;;;;;;;4.50;4.10;;;;;;;;;;5071793;28;20229;-57
2023/04/11 00:08:50;;;;;;;5.47;4.00;;;;;;;;;;5071619;28;20249;-57
2023/04/11 00:11:17;;;;;;;4.03;3.50;;;;;;;;;;5071566;28;20200;-57
2023/04/11 00:13:44;;;;;;;5.03;4.00;;;;;;;;;;5071621;28;20199;-57
2023/04/11 00:16:11;;;;;;;4.83;4.10;;;;;;;;;;5071325;28;20354;-57
2023/04/11 00:18:38;;;;;;;4.57;3.60;;;;;;;;;;5071533;28;20204;-57
2023/04/11 00:21:04;;;;;;;3.87;3.57;;;;;;;;;;5071330;28;20202;-57
2023/04/11 00:23:30;;;;;;;4.30;3.73;;;;;;;;;;5071532;28;20630;-57
2023/04/11 00:25:56;;;;;;;4.10;3.40;;;;;;;;;;5071532;28;20393;-58
2023/04/11 00:28:22;;;;;;;5.20;3.53;;;;;;;;;;5071376;28;20187;-58
2023/04/11 00:30:48;;;;;;;4.00;3.60;;;;;;;;;;5071291;28;20673;-58
2023/04/11 00:33:15;;;;;;;8.03;3.77;;;;;;;;;;5071330;28;20262;-58
2023/04/11 00:35:41;;;;;;;3.93;3.33;;;;;;;;;;5071421;28;20203;-58
2023/04/11 00:38:07;;;;;;;4.67;3.63;;;;;;;;;;5071282;28;20199;-56
2023/04/11 00:40:33;;;;;;;3.63;3.30;;;;;;;;;;5071134;28;20203;-56
2023/04/11 00:43:00;;;;;;;4.00;3.37;;;;;;;;;;5071269;28;20206;-56
2023/04/11 00:45:26;;;;;;;5.27;3.30;;;;;;;;;;5071077;28;20203;-56
2023/04/11 00:47:52;;;;;;;5.60;3.93;;;;;;;;;;5071244;28;20195;-56
2023/04/11 00:50:21;;;;;;;3.30;2.87;;;;;;;;;;5071012;28;20200;-57
2023/04/11 00:52:49;;;;;;;3.37;2.80;;;;;;;;;;5071163;28;20564;-57
2023/04/11 00:55:15;;;;;;;4.47;2.90;;;;;;;;;;5071151;28;20191;-57
2023/04/11 00:57:41;;;;;;;4.13;2.80;;;;;;;;;;5071220;28;20222;-57
2023/04/11 01:00:10;;;;;;;2.80;2.50;;;;;;;;;;5070970;28;20199;-57
2023/04/11 01:02:37;;;;;;;4.30;2.60;;;;;;;;;;5071056;28;20699;-57
2023/04/11 01:05:03;;;;;;;3.10;2.13;;;;;;;;;;5070971;28;20230;-57
2023/04/11 01:07:31;;;;;;;3.17;2.43;;;;;;;;;;5070981;28;20203;-56
2023/04/11 01:09:58;;;;;;;6.77;2.57;;;;;;;;;;5072661;28;20282;-57
2023/04/11 01:12:25;;;;;;;3.43;2.17;;;;;;;;;;5074715;28;20205;-56
2023/04/11 01:14:51;;;;;;;4.23;2.30;;;;;;;;;;5074745;28;20256;-56
2023/04/11 01:17:20;;;;;;;2.50;2.30;;;;;;;;;;5074472;28;20204;-56
2023/04/11 01:19:46;;;;;;;3.47;2.10;;;;;;;;;;5074790;28;20219;-58
2023/04/11 01:22:13;;;;;;;4.90;2.40;;;;;;;;;;5074612;28;20246;-56
2023/04/11 01:24:40;;;;;;;2.33;1.80;;;;;;;;;;5074500;28;20262;-57
2023/04/11 01:27:07;;;;;;;2.50;2.10;;;;;;;;;;5074502;28;20520;-56
2023/04/11 01:29:33;;;;;;;2.10;1.90;;;;;;;;;;5074458;28;20195;-57
2023/04/11 01:31:59;;;;;;;4.47;2.20;;;;;;;;;;5074442;28;20632;-56
2023/04/11 01:34:27;;;;;;;3.53;1.97;;;;;;;;;;5074248;28;20222;-56
2023/04/11 01:36:53;;;;;;;3.23;1.90;;;;;;;;;;5074279;28;20637;-56
2023/04/11 01:39:19;;;;;;;2.27;1.80;;;;;;;;;;5074213;28;20225;-57
2023/04/11 01:41:47;;;;;;;2.53;1.57;;;;;;;;;;5074497;28;20223;-57
2023/04/11 01:44:13;;;;;;;3.17;1.90;;;;;;;;;;5074172;28;20235;-57
2023/04/11 01:46:39;;;;;;;3.47;1.70;;;;;;;;;;5074210;28;20195;-58
2023/04/11 01:49:05;;;;;;;2.20;1.90;;;;;;;;;;5074023;28;20200;-56
2023/04/11 01:51:31;;;;;;;2.10;1.90;;;;;;;;;;5074124;28;20258;-56
2023/04/11 01:53:57;;;;;;;1.70;1.60;;;;;;;;;;5074197;28;20211;-56
2023/04/11 01:56:23;;;;;;;4.27;2.13;;;;;;;;;;5073860;28;20215;-56
2023/04/11 01:58:51;;;;;;;2.03;1.67;;;;;;;;;;5073813;28;20207;-57
2023/04/11 02:01:17;;;;;;;2.60;2.10;;;;;;;;;;5073868;28;20388;-56
2023/04/11 02:03:43;;;;;;;2.53;1.70;;;;;;;;;;5074014;28;20227;-57
2023/04/11 02:06:09;;;;;;;5.70;1.80;;;;;;;;;;5073784;28;20261;-57
2023/04/11 02:08:35;;;;;;;2.13;1.70;;;;;;;;;;5073814;28;20191;-57
2023/04/11 02:11:01;;;;;;;2.17;1.90;;;;;;;;;;5073862;28;20610;-57
2023/04/11 02:13:27;;;;;;;2.03;1.80;;;;;;;;;;5073711;28;20200;-57
2023/04/11 02:15:54;;;;;;;2.00;1.80;;;;;;;;;;5073635;28;20200;-56
2023/04/11 02:18:20;;;;;;;3.37;2.17;;;;;;;;;;5073546;28;20231;-57
2023/04/11 02:20:46;;;;;;;3.47;2.17;;;;;;;;;;5073427;28;20200;-57
2023/04/11 02:23:14;;;;;;;3.10;1.60;;;;;;;;;;5073578;28;20199;-56
2023/04/11 02:25:40;;;;;;;3.30;2.13;;;;;;;;;;5073548;28;20215;-56
2023/04/11 02:28:06;;;;;;;4.80;2.00;;;;;;;;;;5073421;28;20605;-54
2023/04/11 02:30:32;;;;;;;3.70;1.77;;;;;;;;;;5073264;28;20207;-54
2023/04/11 02:33:00;;;;;;;3.37;1.50;;;;;;;;;;5073298;28;20266;-55
2023/04/11 02:35:26;;;;;;;3.83;1.57;;;;;;;;;;5073228;28;20733;-54
2023/04/11 02:37:52;;;;;;;3.93;1.60;;;;;;;;;;5073292;28;20243;-54
2023/04/11 02:40:18;;;;;;;1.43;1.33;;;;;;;;;;5073123;28;20226;-54
2023/04/11 02:42:44;;;;;;;4.67;1.70;;;;;;;;;;5073385;28;20239;-54
2023/04/11 02:45:10;;;;;;;4.43;1.50;;;;;;;;;;5072837;28;20243;-54
2023/04/11 02:47:36;;;;;;;2.73;1.50;;;;;;;;;;5072996;28;20196;-53
2023/04/11 02:50:04;;;;;;;4.17;1.50;;;;;;;;;;5073055;28;20198;-53
2023/04/11 02:52:32;;;;;;;2.60;1.60;;;;;;;;;;5073101;28;20212;-53
2023/04/11 02:54:58;;;;;;;2.57;1.40;;;;;;;;;;5073057;28;20202;-53
2023/04/11 02:57:24;;;;;;;4.33;1.47;;;;;;;;;;5072703;28;20454;-54
2023/04/11 02:59:50;;;;;;;5.30;1.80;;;;;;;;;;5072783;28;20204;-53
2023/04/11 03:02:16;;;;;;;7.00;2.17;;;;;;;;;;5072663;28;20218;-53
2023/04/11 03:04:42;;;;;;;4.50;1.90;;;;;;;;;;5072721;28;20508;-54
2023/04/11 03:07:11;;;;;;;2.87;1.40;;;;;;;;;;5072704;28;20199;-55
2023/04/11 03:09:37;;;;;;;4.97;1.80;;;;;;;;;;5072715;28;20571;-55
2023/04/11 03:12:03;;;;;;;3.00;1.97;;;;;;;;;;5072474;28;20936;-55
2023/04/11 03:14:29;;;;;;;3.57;1.70;;;;;;;;;;5072631;28;20434;-55
2023/04/11 03:16:55;;;;;;;3.67;1.60;;;;;;;;;;5072440;28;20196;-59
2023/04/11 03:19:21;;;;;;;7.10;2.00;;;;;;;;;;5072268;28;20444;-55
2023/04/11 03:21:47;;;;;;;5.00;1.90;;;;;;;;;;5072492;28;20199;-55
2023/04/11 03:24:14;;;;;;;3.70;1.70;;;;;;;;;;5072319;28;20660;-55
2023/04/11 03:26:40;;;;;;;2.63;1.50;;;;;;;;;;5072278;28;20235;-55
2023/04/11 03:29:06;;;;;;;5.13;2.77;;;;;;;;;;5072260;28;20434;-55
2023/04/11 03:31:32;;;;;;;6.60;2.37;;;;;;;;;;5071730;28;20487;-55
2023/04/11 03:33:58;;;;;;;6.70;1.90;;;;;;;;;;5071933;28;20666;-55
2023/04/11 03:36:27;;;;;;;4.07;1.70;;;;;;;;;;5071975;28;20203;-55
2023/04/11 03:38:53;;;;;;;4.77;1.67;;;;;;;;;;5072060;28;20192;-55
2023/04/11 03:41:20;;;;;;;7.40;2.10;;;;;;;;;;5071807;28;20846;-55
2023/04/11 03:43:46;;;;;;;4.37;2.00;;;;;;;;;;5071894;28;20813;-55
2023/04/11 03:46:12;;;;;;;4.03;1.90;;;;;;;;;;5071669;28;20464;-55
2023/04/11 03:48:38;;;;;;;4.47;2.10;;;;;;;;;;5071922;28;20932;-55
2023/04/11 03:51:05;;;;;;;5.50;1.90;;;;;;;;;;5071862;28;20203;-55
2023/04/11 03:53:31;;;;;;;5.30;2.10;;;;;;;;;;5071836;28;20188;-55
2023/04/11 03:55:57;;;;;;;10.00;2.30;;;;;;;;;;5071842;28;20868;-55
2023/04/11 03:58:25;;;;;;;4.40;1.90;;;;;;;;;;5071638;28;20191;-56
2023/04/11 04:00:51;;;;;;;4.83;1.90;;;;;;;;;;5071925;28;20415;-55
2023/04/11 04:03:17;;;;;;;6.93;2.20;;;;;;;;;;5071573;28;20505;-55
2023/04/11 04:05:43;;;;;;;5.23;2.10;;;;;;;;;;5071801;28;20687;-54
2023/04/11 04:08:09;;;;;;;5.37;2.27;;;;;;;;;;5071571;28;20438;-55
2023/04/11 04:10:35;;;;;;;3.47;2.40;;;;;;;;;;5071617;28;20257;-55
2023/04/11 04:13:01;;;;;;;4.37;2.00;;;;;;;;;;5071699;28;20830;-54
2023/04/11 04:15:28;;;;;;;5.30;2.33;;;;;;;;;;5071470;28;20274;-55
2023/04/11 04:17:55;;;;;;;8.73;2.60;;;;;;;;;;5071579;28;20204;-55
2023/04/11 04:20:21;;;;;;;6.13;2.33;;;;;;;;;;5071387;28;20844;-55
2023/04/11 04:22:47;;;;;;;7.03;2.50;;;;;;;;;;5071694;28;20521;-55
2023/04/11 04:25:15;;;;;;;3.97;2.27;;;;;;;;;;5071495;28;20576;-55
2023/04/11 04:27:43;;;;;;;6.63;2.50;;;;;;;;;;5071551;28;20200;-55
2023/04/11 04:30:09;;;;;;;6.43;2.30;;;;;;;;;;5071254;28;20521;-57
2023/04/11 04:32:37;;;;;;;5.77;3.53;;;;;;;;;;5071227;28;20610;-57
2023/04/11 04:35:03;;;;;;;6.70;2.77;;;;;;;;;;5071314;28;20445;-55
2023/04/11 04:37:29;;;;;;;11.13;4.83;;;;;;;;;;5071403;28;20915;-55
2023/04/11 04:39:56;;;;;;;9.23;3.33;;;;;;;;;;5071223;28;20859;-56
2023/04/11 04:42:22;;;;;;;8.47;2.90;;;;;;;;;;5071149;28;20760;-55
2023/04/11 04:44:48;;;;;;;7.63;3.37;;;;;;;;;;5072483;28;20890;-55
2023/04/11 04:47:15;;;;;;;7.10;3.30;;;;;;;;;;5075342;28;20835;-54
2023/04/11 04:49:43;;;;;;;7.40;4.03;;;;;;;;;;5075287;28;20441;-55
2023/04/11 04:52:09;;;;;;;7.10;3.53;;;;;;;;;;5074921;28;20437;-56
2023/04/11 04:54:35;;;;;;;7.57;2.60;;;;;;;;;;5075055;28;20438;-55
2023/04/11 04:57:01;;;;;;;6.03;3.07;;;;;;;;;;5075234;28;20468;-55
2023/04/11 04:59:27;;;;;;;6.13;3.17;;;;;;;;;;5073841;28;20752;-55
2023/04/11 05:01:53;;;;;;;18.53;11.70;;;;;;;;;;5075146;28;20442;-55
2023/04/11 05:04:19;;;;;;;40.53;20.43;;;;;;;;;;5074820;28;20215;-55
2023/04/11 05:06:46;;;;;;;38.10;20.27;;;;;;;;;;5075197;28;20804;-55
2023/04/11 05:09:13;;;;;;;17.27;9.27;;;;;;;;;;5074867;28;20489;-56
2023/04/11 05:11:39;;;;;;;15.90;8.97;;;;;;;;;;5074647;28;20944;-56
2023/04/11 05:14:05;;;;;;;20.43;6.60;;;;;;;;;;5074782;28;20446;-56
2023/04/11 05:16:31;;;;;;;16.87;8.27;;;;;;;;;;5074610;28;20211;-56
2023/04/11 05:18:57;;;;;;;18.13;8.00;;;;;;;;;;5074773;28;20430;-56
2023/04/11 05:21:23;;;;;;;15.17;6.13;;;;;;;;;;5074459;28;21004;-56
2023/04/11 05:23:51;;;;;;;12.37;4.90;;;;;;;;;;5074466;28;20478;-56
2023/04/11 05:26:17;;;;;;;12.13;5.13;;;;;;;;;;5074562;28;20491;-56
2023/04/11 05:28:43;;;;;;;9.67;4.23;;;;;;;;;;5074652;28;20442;-56
2023/04/11 05:31:10;;;;;;;12.70;4.67;;;;;;;;;;5074388;28;20430;-56
2023/04/11 05:33:40;;;;;;;8.73;4.17;;;;;;;;;;5074265;28;20239;-56
2023/04/11 05:36:07;;;;;;;7.97;3.67;;;;;;;;;;5074333;28;20475;-56
2023/04/11 05:38:33;;;;;;;11.90;3.47;;;;;;;;;;5074081;28;20440;-56
2023/04/11 05:41:00;;;;;;;9.07;3.23;;;;;;;;;;5074321;28;20434;-56
2023/04/11 05:43:26;;;;;;;5.70;2.83;;;;;;;;;;5074078;28;20199;-56
2023/04/11 05:45:52;;;;;;;7.50;2.73;;;;;;;;;;5074118;28;20464;-56
2023/04/11 05:48:18;;;;;;;10.27;2.60;;;;;;;;;;5074000;28;20192;-56
2023/04/11 05:50:44;;;;;;;3.90;2.70;;;;;;;;;;5074179;28;20434;-55
2023/04/11 05:53:10;;;;;;;10.57;2.70;;;;;;;;;;5073990;28;20438;-55
2023/04/11 05:55:37;;;;;;;5.93;2.30;;;;;;;;;;5073220;28;20432;-56
2023/04/11 05:58:04;;;;;;;6.97;2.97;;;;;;;;;;5074021;28;20480;-57
2023/04/11 06:00:31;;;;;;;3.87;1.83;;;;;;;;;;5073972;28;20453;-56
2023/04/11 06:02:57;;;;;;;6.33;2.43;;;;;;;;;;5074033;28;20463;-57
2023/04/11 06:05:24;;;;;;;4.87;2.40;;;;;;;;;;5073675;28;20473;-57
2023/04/11 06:07:50;;;;;;;7.00;2.30;;;;;;;;;;5073787;28;20204;-55
2023/04/11 06:10:16;;;;;;;7.87;2.40;;;;;;;;;;5073821;28;20195;-54
2023/04/11 06:12:42;;;;;;;9.03;2.00;;;;;;;;;;5074155;28;20517;-55
2023/04/11 06:15:13;;;;;;;5.17;2.27;;;;;;;;;;5073646;28;20666;-56
2023/04/11 06:17:39;;;;;;;7.93;2.70;;;;;;;;;;5073938;28;20286;-55
2023/04/11 06:20:06;;;;;;;8.83;2.50;;;;;;;;;;5073569;28;20222;-53
2023/04/11 06:22:32;;;;;;;6.17;2.77;;;;;;;;;;5073437;28;20249;-56
2023/04/11 06:24:58;;;;;;;8.77;2.73;;;;;;;;;;5073501;28;20222;-54
2023/04/11 06:27:25;;;;;;;5.50;2.30;;;;;;;;;;5073370;28;20571;-56
2023/04/11 06:29:51;;;;;;;7.97;2.50;;;;;;;;;;5073444;28;20253;-55
2023/04/11 06:32:18;;;;;;;9.80;2.27;;;;;;;;;;5072964;28;20706;-54
2023/04/11 06:34:44;;;;;;;7.80;2.20;;;;;;;;;;5073368;28;20184;-55
2023/04/11 06:37:10;;;;;;;6.43;2.43;;;;;;;;;;5073264;28;20206;-55
2023/04/11 06:39:36;;;;;;;7.83;2.27;;;;;;;;;;5073315;28;20283;-55
2023/04/11 06:42:03;;;;;;;8.83;3.40;;;;;;;;;;5073248;28;20231;-54
2023/04/11 06:44:29;;;;;;;11.43;2.93;;;;;;;;;;5073078;28;20223;-54
2023/04/11 06:46:55;;;;;;;7.47;2.40;;;;;;;;;;5072805;28;20831;-54
2023/04/11 06:49:22;;;;;;;5.83;2.10;;;;;;;;;;5072903;28;20202;-54
2023/04/11 06:51:53;;;;;;;5.50;2.90;;;;;;;;;;5072946;28;20278;-54
2023/04/11 06:54:19;;;;;;;5.40;2.30;;;;;;;;;;5072845;28;20209;-55
2023/04/11 06:56:45;;;;;;;7.40;2.27;;;;;;;;;;5073003;28;20310;-55
2023/04/11 06:59:11;;;;;;;5.67;2.40;;;;;;;;;;5072831;28;20227;-55
2023/04/11 07:01:38;;;;;;;7.70;2.70;;;;;;;;;;5072857;28;20514;-54
2023/04/11 07:04:04;;;;;;;7.20;2.80;;;;;;;;;;5072583;28;20224;-54
2023/04/11 07:06:31;;;;;;;8.70;2.40;;;;;;;;;;5072558;28;20203;-54
2023/04/11 07:09:00;;;;;;;6.30;2.50;;;;;;;;;;5072322;28;20204;-54
2023/04/11 07:11:26;;;;;;;7.33;2.57;;;;;;;;;;5072505;28;20274;-54
2023/04/11 07:13:52;;;;;;;5.70;2.40;;;;;;;;;;5072565;28;20195;-54
2023/04/11 07:16:18;;;;;;;7.73;3.43;;;;;;;;;;5072288;28;20204;-54
2023/04/11 07:18:44;;;;;;;8.17;3.27;;;;;;;;;;5072477;28;20273;-55
2023/04/11 07:21:12;;;;;;;5.10;2.47;;;;;;;;;;5072307;28;20200;-54
2023/04/11 07:23:39;;;;;;;6.43;2.47;;;;;;;;;;5072015;28;20200;-55
2023/04/11 07:26:07;;;;;;;6.50;2.30;;;;;;;;;;5072293;28;20262;-55
2023/04/11 07:28:33;;;;;;;5.27;2.60;;;;;;;;;;5072156;28;20207;-55
2023/04/11 07:30:59;;;;;;;9.00;2.97;;;;;;;;;;5072252;28;20257;-55
2023/04/11 07:33:26;;;;;;;7.40;2.40;;;;;;;;;;5072049;28;20293;-55
2023/04/11 07:35:52;;;;;;;7.37;2.87;;;;;;;;;;5072101;28;20286;-55
2023/04/11 07:38:26;;;;;;;6.83;2.63;;;;;;;;;;5072037;28;20290;-55
2023/04/11 07:40:53;;;;;;;6.47;2.60;;;;;;;;;;5072034;28;20206;-55
2023/04/11 07:43:19;;;;;;;7.47;2.50;;;;;;;;;;5071847;28;20297;-55
2023/04/11 07:45:45;;;;;;;9.47;3.00;;;;;;;;;;5071997;28;20698;-56
2023/04/11 07:48:11;;;;;;;5.97;2.70;;;;;;;;;;5071919;28;20204;-55
2023/04/11 07:50:37;;;;;;;6.47;2.80;;;;;;;;;;5071909;28;20566;-56
2023/04/11 07:53:03;;;;;;;4.00;2.33;;;;;;;;;;5071855;28;20195;-55
2023/04/11 07:55:29;;;;;;;6.13;2.53;;;;;;;;;;5071822;28;20559;-55
2023/04/11 07:57:56;;;;;;;4.97;2.53;;;;;;;;;;5071640;28;20642;-55
2023/04/11 08:00:22;;;;;;;4.77;2.80;;;;;;;;;;5071465;28;20206;-55
2023/04/11 08:02:48;;;;;;;4.47;2.50;;;;;;;;;;5071699;28;20289;-56
2023/04/11 08:05:14;;;;;;;7.27;2.50;;;;;;;;;;5071771;28;20256;-57
2023/04/11 08:07:40;;;;;;;7.57;2.73;;;;;;;;;;5071366;28;20198;-55
2023/04/11 08:10:07;;;;;;;6.83;2.80;;;;;;;;;;5071581;28;20245;-56
2023/04/11 08:12:33;;;;;;;5.30;2.43;;;;;;;;;;5071415;28;20203;-56
2023/04/11 08:15:01;;;;;;;4.57;2.07;;;;;;;;;;5071599;28;20753;-57
2023/04/11 08:17:27;;;;;;;5.40;2.37;;;;;;;;;;5071501;28;20210;-57
2023/04/11 08:19:53;;;;;;;4.30;2.40;;;;;;;;;;5071344;28;20210;-57
2023/04/11 08:22:20;;;;;;;4.53;2.30;;;;;;;;;;5071386;28;20199;-57
2023/04/11 08:24:46;;;;;;;4.30;2.20;;;;;;;;;;5071446;28;20254;-55
2023/04/11 08:27:11;;;;;;;4.50;2.30;;;;;;;;;;5071543;28;20206;-55
2023/04/11 08:29:37;;;;;;;6.13;2.20;;;;;;;;;;5071280;28;20191;-56
2023/04/11 08:32:05;;;;;;;4.50;2.10;;;;;;;;;;5071250;28;20330;-56
2023/04/11 08:34:31;;;;;;;2.50;1.83;;;;;;;;;;5071347;28;20245;-56
2023/04/11 08:36:57;;;;;;;4.70;1.97;;;;;;;;;;5071431;28;20200;-55
2023/04/11 08:39:23;;;;;;;5.80;2.60;;;;;;;;;;5071283;28;20195;-55
2023/04/11 08:41:50;;;;;;;4.90;2.17;;;;;;;;;;5071738;28;20195;-56
2023/04/11 08:44:16;;;;;;;4.20;2.30;;;;;;;;;;5071010;28;20633;-56
2023/04/11 08:46:42;;;;;;;6.17;2.10;;;;;;;;;;5071415;28;20199;-57
2023/04/11 08:49:10;;;;;;;4.57;2.30;;;;;;;;;;5071117;28;20227;-56
2023/04/11 08:51:36;;;;;;;5.53;2.80;;;;;;;;;;5071097;28;20199;-56
2023/04/11 08:54:04;;;;;;;4.23;2.30;;;;;;;;;;5071125;28;20546;-57
2023/04/11 08:56:30;;;;;;;6.97;2.27;;;;;;;;;;5071041;28;20298;-56
2023/04/11 08:58:56;;;;;;;3.73;2.20;;;;;;;;;;5071055;28;20241;-56
2023/04/11 09:01:30;;;;;;;6.00;2.37;;;;;;;;;;5070869;28;20195;-56
2023/04/11 09:03:58;;;;;;;5.90;2.27;;;;;;;;;;5070954;28;20302;-57
2023/04/11 09:06:25;;;;;;;5.03;2.07;;;;;;;;;;5070952;28;20593;-58
2023/04/11 09:08:51;;;;;;;3.33;1.90;;;;;;;;;;5070826;28;20777;-56
2023/04/11 09:11:20;;;;;;;2.53;1.70;;;;;;;;;;5070985;28;20195;-56
2023/04/11 09:13:47;;;;;;;3.47;1.53;;;;;;;;;;5071087;28;20200;-56
2023/04/11 09:16:13;;;;;;;3.10;1.60;;;;;;;;;;5071014;28;20242;-56
2023/04/11 09:18:40;;;;;;;2.30;1.70;;;;;;;;;;5070675;28;20214;-56
2023/04/11 09:21:07;;;;;;;2.57;1.60;;;;;;;;;;5070889;28;20211;-57
2023/04/11 09:23:34;;;;;;;2.30;1.30;;;;;;;;;;5070908;28;20208;-56
2023/04/11 09:26:01;;;;;;;2.10;1.47;;;;;;;;;;5071009;28;20252;-57
2023/04/11 09:28:27;;;;;;;2.63;1.20;;;;;;;;;;5071055;28;20685;-56
2023/04/11 09:30:54;;;;;;;3.00;1.50;;;;;;;;;;5072045;28;20440;-56
2023/04/11 09:33:21;;;;;;;2.63;1.60;;;;;;;;;;5074256;28;20250;-56
2023/04/11 09:35:47;;;;;;;2.90;1.70;;;;;;;;;;5075055;28;20192;-57
2023/04/11 09:38:14;;;;;;;2.63;1.63;;;;;;;;;;5075003;28;20240;-55
2023/04/11 09:40:43;;;;;;;6.53;1.57;;;;;;;;;;5074551;28;20200;-55
2023/04/11 09:43:09;;;;;;;5.63;1.63;;;;;;;;;;5074422;28;20210;-56
2023/04/11 09:45:35;;;;;;;2.33;1.60;;;;;;;;;;5073968;28;20306;-57
2023/04/11 09:48:01;;;;;;;2.93;1.57;;;;;;;;;;5074424;28;20583;-56
2023/04/11 09:50:27;;;;;;;4.23;2.10;;;;;;;;;;5074341;28;20249;-56
2023/04/11 09:52:55;;;;;;;3.47;1.63;;;;;;;;;;5074114;28;20206;-56
2023/04/11 09:55:21;;;;;;;5.77;1.90;;;;;;;;;;5073986;28;20425;-56
2023/04/11 09:57:49;;;;;;;1.77;1.43;;;;;;;;;;5073970;28;20579;-57
2023/04/11 10:00:17;;;;;;;4.70;1.90;;;;;;;;;;5074021;28;20204;-57
2023/04/11 10:02:44;;;;;;;2.33;1.40;;;;;;;;;;5073829;28;20249;-56
2023/04/11 10:05:12;;;;;;;3.70;1.70;;;;;;;;;;5073719;28;20233;-57
2023/04/11 10:07:44;;;;;;;4.10;1.47;;;;;;;;;;5073731;28;20276;-57
2023/04/11 10:10:15;;;;;;;2.30;1.33;;;;;;;;;;5073794;28;20199;-56
2023/04/11 10:12:41;;;;;;;3.67;1.80;;;;;;;;;;5073695;28;20244;-56
2023/04/11 10:15:09;;;;;;;5.17;1.80;;;;;;;;;;5073568;28;20234;-56
2023/04/11 10:17:35;;;;;;;5.60;1.83;;;;;;;;;;5073270;28;20204;-56
2023/04/11 10:20:04;;;;;;;6.87;1.80;;;;;;;;;;5073712;28;20191;-56
2023/04/11 10:22:47;;;;;;;5.40;1.70;;;;;;;;;;5073549;28;20198;-57
2023/04/11 10:25:17;;;;;;;5.33;1.60;;;;;;;;;;5073373;28;20227;-56
2023/04/11 10:27:52;;;;;;;2.90;1.40;;;;;;;;;;5073498;28;20572;-56
2023/04/11 10:30:39;;;;;;;4.63;1.47;;;;;;;;;;5073338;28;20248;-56
2023/04/11 10:33:12;;;;;;;4.27;1.60;;;;;;;;;;5073038;28;20652;-56
2023/04/11 10:35:52;;;;;;;3.00;1.70;;;;;;;;;;5073167;28;20242;-57
2023/04/11 10:38:33;;;;;;;2.13;1.37;;;;;;;;;;5072962;28;20231;-57
2023/04/11 10:41:15;;;;;;;3.43;1.47;;;;;;;;;;5073065;28;20214;-56
2023/04/11 10:43:41;;;;;;;2.10;1.33;;;;;;;;;;5072815;28;20267;-56
2023/04/11 10:46:18;;;;;;;2.70;1.33;;;;;;;;;;5072981;28;20195;-56
2023/04/11 10:48:56;;;;;;;2.47;1.60;;;;;;;;;;5073218;28;20622;-56
2023/04/11 10:51:24;;;;;;;4.03;2.10;;;;;;;;;;5072938;28;20290;-57
2023/04/11 10:53:51;;;;;;;4.43;1.73;;;;;;;;;;5072815;28;20200;-56
2023/04/11 10:56:32;;;;;;;2.07;1.60;;;;;;;;;;5072882;28;20288;-55
2023/04/11 10:58:58;;;;;;;3.93;1.97;;;;;;;;;;5072720;28;20588;-55
2023/04/11 11:01:25;;;;;;;3.37;1.70;;;;;;;;;;5072637;28;20210;-57
2023/04/11 11:03:55;;;;;;;2.23;1.70;;;;;;;;;;5072785;28;20204;-56
2023/04/11 11:06:21;;;;;;;2.77;1.47;;;;;;;;;;5072484;28;20253;-55
2023/04/11 11:08:47;;;;;;;3.83;1.50;;;;;;;;;;5072515;28;20207;-56
2023/04/11 11:11:15;;;;;;;4.87;1.83;;;;;;;;;;5072776;28;20200;-55
2023/04/11 11:13:41;;;;;;;3.70;1.50;;;;;;;;;;5072410;28;20639;-56
2023/04/11 11:16:07;;;;;;;4.33;1.83;;;;;;;;;;5072499;28;20287;-57
2023/04/11 11:18:35;;;;;;;3.23;1.80;;;;;;;;;;5072244;28;20199;-57
2023/04/11 11:21:01;;;;;;;1.93;1.37;;;;;;;;;;5072501;28;20219;-56
2023/04/11 11:23:27;;;;;;;2.30;1.60;;;;;;;;;;5072392;28;20249;-57
2023/04/11 11:25:53;;;;;;;4.63;1.63;;;;;;;;;;5072165;28;20223;-57
2023/04/11 11:28:19;;;;;;;4.70;1.80;;;;;;;;;;5072102;28;20234;-56
2023/04/11 11:30:50;;;;;;;3.40;1.87;;;;;;;;;;5072297;28;20669;-56
2023/04/11 11:33:19;;;;;;;4.53;1.70;;;;;;;;;;5071964;28;20744;-56
2023/04/11 11:35:50;;;;;;;2.73;1.80;;;;;;;;;;5072221;28;20206;-56
2023/04/11 11:38:17;;;;;;;4.60;1.80;;;;;;;;;;5072259;28;20223;-56
2023/04/11 11:40:43;;;;;;;4.80;1.70;;;;;;;;;;5072056;28;20206;-56
2023/04/11 11:43:10;;;;;;;4.33;1.93;;;;;;;;;;5072031;28;20218;-56
2023/04/11 11:45:36;;;;;;;5.83;2.03;;;;;;;;;;5071727;28;20346;-56
2023/04/11 11:48:02;;;;;;;5.33;2.10;;;;;;;;;;5072015;28;20290;-56
2023/04/11 11:50:28;;;;;;;3.80;2.10;;;;;;;;;;5071954;28;20207;-57
2023/04/11 11:52:59;;;;;;;3.27;1.60;;;;;;;;;;5071592;28;20200;-57
2023/04/11 11:55:32;;;;;;;5.07;1.97;;;;;;;;;;5071683;28;20200;-57
2023/04/11 11:57:59;;;;;;;5.17;2.10;;;;;;;;;;5071990;28;20195;-57
2023/04/11 12:00:26;;;;;;;4.03;2.23;;;;;;;;;;5071583;28;20223;-56
2023/04/11 12:02:53;;;;;;;4.23;1.80;;;;;;;;;;5071765;28;20210;-56
2023/04/11 12:05:19;;;;;;;4.10;1.77;;;;;;;;;;5071603;28;20281;-56
2023/04/11 12:07:45;;;;;;;2.37;1.43;;;;;;;;;;5071579;28;20229;-57
2023/04/11 12:10:16;;;;;;;3.00;1.67;;;;;;;;;;5071605;28;20230;-56
2023/04/11 12:12:42;;;;;;;3.20;1.87;;;;;;;;;;5071815;28;20594;-56
2023/04/11 12:15:10;;;;;;;4.93;2.00;;;;;;;;;;5071423;28;20542;-57
2023/04/11 12:17:36;;;;;;;1.70;1.60;;;;;;;;;;5071310;28;20200;-57
2023/04/11 12:20:09;;;;;;;5.47;2.00;;;;;;;;;;5071553;28;20245;-56
2023/04/11 12:22:35;;;;;;;3.83;1.90;;;;;;;;;;5071334;28;20207;-56
2023/04/11 12:25:05;;;;;;;3.97;1.90;;;;;;;;;;5071670;28;20556;-56
2023/04/11 12:27:33;;;;;;;3.03;1.90;;;;;;;;;;5071451;28;20665;-56
2023/04/11 12:29:59;;;;;;;3.87;2.00;;;;;;;;;;5071667;28;20203;-55
2023/04/11 12:32:26;;;;;;;3.60;1.83;;;;;;;;;;5071118;28;20322;-56
2023/04/11 12:34:52;;;;;;;5.10;1.87;;;;;;;;;;5071364;28;20199;-57
2023/04/11 12:37:18;;;;;;;3.13;1.63;;;;;;;;;;5071259;28;20202;-56
2023/04/11 12:39:45;;;;;;;6.43;2.10;;;;;;;;;;5071498;28;20196;-56
2023/04/11 12:42:11;;;;;;;4.50;1.90;;;;;;;;;;5071126;28;20196;-56
2023/04/11 12:44:38;;;;;;;6.80;1.90;;;;;;;;;;5070975;28;20216;-56
2023/04/11 12:47:04;;;;;;;2.50;1.43;;;;;;;;;;5071249;28;20196;-56
2023/04/11 12:49:30;;;;;;;3.30;2.03;;;;;;;;;;5071222;28;20592;-56
2023/04/11 12:51:56;;;;;;;4.33;1.60;;;;;;;;;;5071411;28;20271;-56
2023/04/11 12:54:22;;;;;;;5.20;2.03;;;;;;;;;;5071129;28;20203;-56
2023/04/11 12:56:48;;;;;;;4.40;1.80;;;;;;;;;;5071290;28;20694;-56
2023/04/11 12:59:15;;;;;;;4.57;2.30;;;;;;;;;;5071192;28;20195;-56
2023/04/11 13:01:42;;;;;;;4.23;1.77;;;;;;;;;;5070935;28;20248;-56
2023/04/11 13:04:09;;;;;;;4.73;1.90;;;;;;;;;;5071037;28;20269;-57
2023/04/11 13:06:36;;;;;;;4.70;2.30;;;;;;;;;;5073500;28;20215;-56
2023/04/11 13:09:03;;;;;;;5.03;2.50;;;;;;;;;;5075179;28;20199;-55
2023/04/11 13:11:29;;;;;;;6.20;2.30;;;;;;;;;;5074905;28;20638;-55
2023/04/11 13:13:55;;;;;;;5.50;2.30;;;;;;;;;;5074588;28;20727;-54
2023/04/11 13:16:21;;;;;;;5.03;2.07;;;;;;;;;;5074752;28;20192;-55
2023/04/11 13:18:49;;;;;;;3.90;2.00;;;;;;;;;;5074846;28;20561;-55
2023/04/11 13:21:15;;;;;;;5.10;2.53;;;;;;;;;;5074666;28;20215;-56
2023/04/11 13:23:41;;;;;;;6.37;2.23;;;;;;;;;;5074652;28;20254;-55
2023/04/11 13:26:07;;;;;;;3.80;2.00;;;;;;;;;;5074465;28;20752;-56
2023/04/11 13:28:33;;;;;;;2.83;1.60;;;;;;;;;;5074014;28;20218;-56
2023/04/11 13:31:00;;;;;;;1.60;1.27;;;;;;;;;;5074393;28;20253;-56
2023/04/11 13:33:26;;;;;;;3.33;1.80;;;;;;;;;;5074294;28;20330;-55
2023/04/11 13:35:53;;;;;;;2.70;1.40;;;;;;;;;;5074476;28;20196;-56
2023/04/11 13:38:20;;;;;;;4.43;1.67;;;;;;;;;;5074311;28;20685;-55
2023/04/11 13:40:46;;;;;;;5.33;1.47;;;;;;;;;;5074390;28;20277;-56
2023/04/11 13:43:12;;;;;;;2.10;1.00;;;;;;;;;;5074346;28;20195;-55
2023/04/11 13:45:38;;;;;;;1.80;1.10;;;;;;;;;;5074245;28;20257;-55
2023/04/11 13:48:04;;;;;;;2.27;1.40;;;;;;;;;;5074193;28;20200;-55
2023/04/11 13:50:30;;;;;;;1.80;1.20;;;;;;;;;;5074083;28;20202;-55
2023/04/11 13:52:57;;;;;;;3.13;1.70;;;;;;;;;;5074151;28;20199;-55
2023/04/11 13:55:23;;;;;;;1.50;1.03;;;;;;;;;;5074159;28;20199;-56
2023/04/11 13:57:49;;;;;;;4.00;1.23;;;;;;;;;;5074056;28;20658;-55
2023/04/11 14:00:16;;;;;;;2.53;1.53;;;;;;;;;;5074160;28;20208;-55
2023/04/11 14:02:43;;;;;;;1.37;1.07;;;;;;;;;;5073842;28;20674;-55
2023/04/11 14:05:13;;;;;;;1.43;1.20;;;;;;;;;;5073800;28;20655;-55
2023/04/11 14:07:39;;;;;;;1.67;1.20;;;;;;;;;;5073690;28;20200;-55
2023/04/11 14:10:07;;;;;;;2.13;1.10;;;;;;;;;;5073658;28;20206;-55
2023/04/11 14:12:33;;;;;;;4.07;1.30;;;;;;;;;;5073774;28;20265;-55
2023/04/11 14:14:59;;;;;;;3.17;1.20;;;;;;;;;;5073927;28;20196;-56
2023/04/11 14:17:25;;;;;;;3.70;1.47;;;;;;;;;;5073276;28;20676;-56
2023/04/11 14:19:51;;;;;;;3.73;1.20;;;;;;;;;;5073640;28;20222;-56
2023/04/11 14:22:17;;;;;;;1.57;1.00;;;;;;;;;;5073681;28;20200;-56
2023/04/11 14:24:43;;;;;;;1.87;1.20;;;;;;;;;;5073552;28;20298;-56
2023/04/11 14:27:10;;;;;;;2.40;1.33;;;;;;;;;;5073589;28;20204;-56
2023/04/11 14:29:36;;;;;;;3.33;1.40;;;;;;;;;;5073308;28;20306;-56
2023/04/11 14:32:02;;;;;;;2.40;1.30;;;;;;;;;;5073262;28;20885;-56
2023/04/11 14:34:29;;;;;;;2.70;1.33;;;;;;;;;;5073460;28;20204;-56
2023/04/11 14:36:55;;;;;;;2.63;1.20;;;;;;;;;;5073269;28;20257;-56
2023/04/11 14:39:21;;;;;;;1.77;1.07;;;;;;;;;;5073239;28;20502;-56
2023/04/11 14:41:47;;;;;;;1.20;1.00;;;;;;;;;;5073180;28;20328;-56